sensor_id;sensor_type;location;lat;lon;timestamp;P1;durP1;ratioP1;P2;durP2;ratioP2
55218;SDS011;65463;43.864;20.136;2023-11-19T00:00:26;4.03;;;2.10;;
55218;SDS011;65463;43.864;20.136;2023-11-19T00:02:53;3.30;;;2.13;;
55218;SDS011;65463;43.864;20.136;2023-11-19T00:05:19;3.67;;;2.20;;
55218;SDS011;65463;43.864;20.136;2023-11-19T00:07:45;3.10;;;2.22;;
55218;SDS011;65463;43.864;20.136;2023-11-19T00:10:12;3.63;;;2.28;;
55218;SDS011;65463;43.864;20.136;2023-11-19T00:12:39;3.55;;;2.05;;
55218;SDS011;65463;43.864;20.136;2023-11-19T00:15:05;3.05;;;2.10;;
55218;SDS011;65463;43.864;20.136;2023-11-19T00:17:39;4.13;;;2.08;;
55218;SDS011;65463;43.864;20.136;2023-11-19T00:20:09;4.38;;;2.53;;
55218;SDS011;65463;43.864;20.136;2023-11-19T00:22:36;4.45;;;2.35;;
55218;SDS011;65463;43.864;20.136;2023-11-19T00:25:02;4.20;;;2.35;;
55218;SDS011;65463;43.864;20.136;2023-11-19T00:27:28;3.70;;;2.25;;
55218;SDS011;65463;43.864;20.136;2023-11-19T00:29:55;4.15;;;2.40;;
55218;SDS011;65463;43.864;20.136;2023-11-19T00:32:22;3.60;;;2.20;;
55218;SDS011;65463;43.864;20.136;2023-11-19T00:34:48;5.85;;;2.53;;
55218;SDS011;65463;43.864;20.136;2023-11-19T00:37:14;3.65;;;2.35;;
55218;SDS011;65463;43.864;20.136;2023-11-19T00:39:41;3.47;;;2.15;;
55218;SDS011;65463;43.864;20.136;2023-11-19T00:42:07;4.28;;;2.28;;
55218;SDS011;65463;43.864;20.136;2023-11-19T00:44:33;4.07;;;2.40;;
55218;SDS011;65463;43.864;20.136;2023-11-19T00:46:59;3.70;;;2.30;;
55218;SDS011;65463;43.864;20.136;2023-11-19T00:49:25;3.75;;;2.00;;
55218;SDS011;65463;43.864;20.136;2023-11-19T00:51:52;3.92;;;1.92;;
55218;SDS011;65463;43.864;20.136;2023-11-19T00:54:18;4.07;;;1.90;;
55218;SDS011;65463;43.864;20.136;2023-11-19T00:56:44;4.70;;;2.10;;
55218;SDS011;65463;43.864;20.136;2023-11-19T00:59:10;4.13;;;2.25;;
55218;SDS011;65463;43.864;20.136;2023-11-19T01:01:37;3.33;;;1.92;;
55218;SDS011;65463;43.864;20.136;2023-11-19T01:04:03;3.63;;;2.13;;
55218;SDS011;65463;43.864;20.136;2023-11-19T01:06:29;3.13;;;2.08;;
55218;SDS011;65463;43.864;20.136;2023-11-19T01:08:56;2.58;;;1.70;;
55218;SDS011;65463;43.864;20.136;2023-11-19T01:11:23;4.20;;;1.90;;
55218;SDS011;65463;43.864;20.136;2023-11-19T01:13:50;4.00;;;1.90;;
55218;SDS011;65463;43.864;20.136;2023-11-19T01:16:16;2.88;;;1.90;;
55218;SDS011;65463;43.864;20.136;2023-11-19T01:18:44;3.28;;;1.92;;
55218;SDS011;65463;43.864;20.136;2023-11-19T01:21:10;4.72;;;1.90;;
55218;SDS011;65463;43.864;20.136;2023-11-19T01:23:36;4.28;;;2.80;;
55218;SDS011;65463;43.864;20.136;2023-11-19T01:26:02;3.30;;;2.13;;
55218;SDS011;65463;43.864;20.136;2023-11-19T01:28:30;4.40;;;2.65;;
55218;SDS011;65463;43.864;20.136;2023-11-19T01:30:56;3.42;;;2.10;;
55218;SDS011;65463;43.864;20.136;2023-11-19T01:33:22;3.22;;;2.15;;
55218;SDS011;65463;43.864;20.136;2023-11-19T01:35:49;2.58;;;1.92;;
55218;SDS011;65463;43.864;20.136;2023-11-19T01:38:15;2.45;;;1.75;;
55218;SDS011;65463;43.864;20.136;2023-11-19T01:40:41;3.42;;;2.40;;
55218;SDS011;65463;43.864;20.136;2023-11-19T01:43:07;4.45;;;2.38;;
55218;SDS011;65463;43.864;20.136;2023-11-19T01:45:36;3.45;;;2.05;;
55218;SDS011;65463;43.864;20.136;2023-11-19T01:48:03;4.50;;;2.00;;
55218;SDS011;65463;43.864;20.136;2023-11-19T01:50:29;3.42;;;2.00;;
55218;SDS011;65463;43.864;20.136;2023-11-19T01:52:56;13.55;;;7.13;;
55218;SDS011;65463;43.864;20.136;2023-11-19T01:55:22;4.45;;;2.13;;
55218;SDS011;65463;43.864;20.136;2023-11-19T01:57:50;3.85;;;2.33;;
55218;SDS011;65463;43.864;20.136;2023-11-19T02:00:19;3.05;;;1.98;;
55218;SDS011;65463;43.864;20.136;2023-11-19T02:02:48;3.03;;;1.90;;
55218;SDS011;65463;43.864;20.136;2023-11-19T02:05:14;2.95;;;2.00;;
55218;SDS011;65463;43.864;20.136;2023-11-19T02:07:41;3.55;;;1.98;;
55218;SDS011;65463;43.864;20.136;2023-11-19T02:10:07;4.03;;;1.95;;
55218;SDS011;65463;43.864;20.136;2023-11-19T02:15:07;3.97;;;1.90;;
55218;SDS011;65463;43.864;20.136;2023-11-19T02:17:34;4.78;;;2.42;;
55218;SDS011;65463;43.864;20.136;2023-11-19T02:20:02;2.83;;;1.83;;
55218;SDS011;65463;43.864;20.136;2023-11-19T02:22:31;4.07;;;1.97;;
55218;SDS011;65463;43.864;20.136;2023-11-19T02:25:01;5.57;;;2.08;;
55218;SDS011;65463;43.864;20.136;2023-11-19T02:27:51;4.05;;;2.13;;
55218;SDS011;65463;43.864;20.136;2023-11-19T02:32:57;3.05;;;2.00;;
55218;SDS011;65463;43.864;20.136;2023-11-19T02:35:27;3.42;;;1.95;;
55218;SDS011;65463;43.864;20.136;2023-11-19T02:37:56;4.15;;;2.10;;
55218;SDS011;65463;43.864;20.136;2023-11-19T02:40:22;3.75;;;2.28;;
55218;SDS011;65463;43.864;20.136;2023-11-19T02:42:51;5.00;;;2.10;;
55218;SDS011;65463;43.864;20.136;2023-11-19T02:45:17;4.47;;;1.95;;
55218;SDS011;65463;43.864;20.136;2023-11-19T02:47:44;3.40;;;2.00;;
55218;SDS011;65463;43.864;20.136;2023-11-19T02:50:10;3.22;;;2.00;;
55218;SDS011;65463;43.864;20.136;2023-11-19T02:52:43;3.10;;;2.20;;
55218;SDS011;65463;43.864;20.136;2023-11-19T02:55:11;4.43;;;2.30;;
55218;SDS011;65463;43.864;20.136;2023-11-19T02:57:40;4.32;;;2.15;;
55218;SDS011;65463;43.864;20.136;2023-11-19T03:00:14;3.38;;;2.10;;
55218;SDS011;65463;43.864;20.136;2023-11-19T03:02:41;4.50;;;2.30;;
55218;SDS011;65463;43.864;20.136;2023-11-19T03:05:19;4.70;;;2.97;;
55218;SDS011;65463;43.864;20.136;2023-11-19T03:07:45;3.35;;;2.40;;
55218;SDS011;65463;43.864;20.136;2023-11-19T03:10:11;6.22;;;2.15;;
55218;SDS011;65463;43.864;20.136;2023-11-19T03:12:42;3.95;;;2.38;;
55218;SDS011;65463;43.864;20.136;2023-11-19T03:15:08;3.95;;;2.15;;
55218;SDS011;65463;43.864;20.136;2023-11-19T03:17:36;4.57;;;2.50;;
55218;SDS011;65463;43.864;20.136;2023-11-19T03:20:03;4.85;;;2.65;;
55218;SDS011;65463;43.864;20.136;2023-11-19T03:22:31;5.45;;;2.78;;
55218;SDS011;65463;43.864;20.136;2023-11-19T03:25:00;3.35;;;2.22;;
55218;SDS011;65463;43.864;20.136;2023-11-19T03:27:27;3.53;;;2.20;;
55218;SDS011;65463;43.864;20.136;2023-11-19T03:29:53;2.78;;;2.15;;
55218;SDS011;65463;43.864;20.136;2023-11-19T03:32:19;2.78;;;2.13;;
55218;SDS011;65463;43.864;20.136;2023-11-19T03:34:45;4.13;;;2.38;;
55218;SDS011;65463;43.864;20.136;2023-11-19T03:37:11;4.50;;;2.35;;
55218;SDS011;65463;43.864;20.136;2023-11-19T03:39:41;4.63;;;2.45;;
55218;SDS011;65463;43.864;20.136;2023-11-19T03:42:07;4.00;;;2.30;;
55218;SDS011;65463;43.864;20.136;2023-11-19T03:44:33;4.43;;;2.40;;
55218;SDS011;65463;43.864;20.136;2023-11-19T03:47:00;3.17;;;2.20;;
55218;SDS011;65463;43.864;20.136;2023-11-19T03:49:26;3.10;;;2.20;;
55218;SDS011;65463;43.864;20.136;2023-11-19T03:51:53;2.90;;;2.03;;
55218;SDS011;65463;43.864;20.136;2023-11-19T03:54:19;3.60;;;2.20;;
55218;SDS011;65463;43.864;20.136;2023-11-19T03:56:48;3.30;;;2.40;;
55218;SDS011;65463;43.864;20.136;2023-11-19T03:59:14;4.60;;;2.42;;
55218;SDS011;65463;43.864;20.136;2023-11-19T04:01:40;3.58;;;2.40;;
55218;SDS011;65463;43.864;20.136;2023-11-19T04:04:07;3.65;;;2.42;;
55218;SDS011;65463;43.864;20.136;2023-11-19T04:06:33;4.03;;;2.45;;
55218;SDS011;65463;43.864;20.136;2023-11-19T04:08:59;4.10;;;2.63;;
55218;SDS011;65463;43.864;20.136;2023-11-19T04:11:25;3.75;;;2.35;;
55218;SDS011;65463;43.864;20.136;2023-11-19T04:13:51;4.20;;;2.20;;
55218;SDS011;65463;43.864;20.136;2023-11-19T04:16:18;4.15;;;2.08;;
55218;SDS011;65463;43.864;20.136;2023-11-19T04:18:44;5.13;;;2.17;;
55218;SDS011;65463;43.864;20.136;2023-11-19T04:21:10;4.57;;;2.50;;
55218;SDS011;65463;43.864;20.136;2023-11-19T04:23:36;3.70;;;2.53;;
55218;SDS011;65463;43.864;20.136;2023-11-19T04:26:02;3.03;;;2.10;;
55218;SDS011;65463;43.864;20.136;2023-11-19T04:28:29;4.28;;;2.10;;
55218;SDS011;65463;43.864;20.136;2023-11-19T04:30:56;5.65;;;2.30;;
55218;SDS011;65463;43.864;20.136;2023-11-19T04:33:25;5.78;;;2.05;;
55218;SDS011;65463;43.864;20.136;2023-11-19T04:35:51;3.35;;;2.33;;
55218;SDS011;65463;43.864;20.136;2023-11-19T04:38:17;4.15;;;2.42;;
55218;SDS011;65463;43.864;20.136;2023-11-19T04:40:43;4.35;;;2.40;;
55218;SDS011;65463;43.864;20.136;2023-11-19T04:43:09;2.75;;;2.10;;
55218;SDS011;65463;43.864;20.136;2023-11-19T04:45:36;4.00;;;2.25;;
55218;SDS011;65463;43.864;20.136;2023-11-19T04:48:02;3.47;;;2.40;;
55218;SDS011;65463;43.864;20.136;2023-11-19T04:50:28;3.53;;;2.33;;
55218;SDS011;65463;43.864;20.136;2023-11-19T04:52:54;3.60;;;2.20;;
55218;SDS011;65463;43.864;20.136;2023-11-19T04:55:21;4.93;;;2.45;;
55218;SDS011;65463;43.864;20.136;2023-11-19T04:57:47;4.32;;;2.80;;
55218;SDS011;65463;43.864;20.136;2023-11-19T05:00:13;4.22;;;2.50;;
55218;SDS011;65463;43.864;20.136;2023-11-19T05:02:39;62.38;;;20.17;;
55218;SDS011;65463;43.864;20.136;2023-11-19T05:05:06;54.40;;;17.70;;
55218;SDS011;65463;43.864;20.136;2023-11-19T05:07:32;25.10;;;8.82;;
55218;SDS011;65463;43.864;20.136;2023-11-19T05:09:58;18.00;;;6.85;;
55218;SDS011;65463;43.864;20.136;2023-11-19T05:12:25;9.02;;;3.95;;
55218;SDS011;65463;43.864;20.136;2023-11-19T05:14:51;7.57;;;4.00;;
55218;SDS011;65463;43.864;20.136;2023-11-19T05:17:17;10.02;;;4.85;;
55218;SDS011;65463;43.864;20.136;2023-11-19T05:19:44;6.18;;;3.38;;
55218;SDS011;65463;43.864;20.136;2023-11-19T05:22:10;8.48;;;3.97;;
55218;SDS011;65463;43.864;20.136;2023-11-19T05:24:39;7.93;;;3.80;;
55218;SDS011;65463;43.864;20.136;2023-11-19T05:27:06;6.68;;;3.38;;
55218;SDS011;65463;43.864;20.136;2023-11-19T05:32:04;6.25;;;3.92;;
55218;SDS011;65463;43.864;20.136;2023-11-19T05:34:30;7.45;;;3.85;;
55218;SDS011;65463;43.864;20.136;2023-11-19T05:36:57;6.55;;;3.80;;
55218;SDS011;65463;43.864;20.136;2023-11-19T05:39:23;7.72;;;4.07;;
55218;SDS011;65463;43.864;20.136;2023-11-19T05:41:50;8.60;;;4.05;;
55218;SDS011;65463;43.864;20.136;2023-11-19T05:44:16;10.25;;;4.40;;
55218;SDS011;65463;43.864;20.136;2023-11-19T05:46:44;8.57;;;4.28;;
55218;SDS011;65463;43.864;20.136;2023-11-19T05:49:10;6.85;;;4.38;;
55218;SDS011;65463;43.864;20.136;2023-11-19T05:51:40;8.23;;;4.70;;
55218;SDS011;65463;43.864;20.136;2023-11-19T05:54:07;10.55;;;4.95;;
55218;SDS011;65463;43.864;20.136;2023-11-19T05:56:33;7.20;;;4.53;;
55218;SDS011;65463;43.864;20.136;2023-11-19T05:58:59;10.63;;;4.72;;
55218;SDS011;65463;43.864;20.136;2023-11-19T06:01:28;7.47;;;4.45;;
55218;SDS011;65463;43.864;20.136;2023-11-19T06:03:57;7.25;;;4.25;;
55218;SDS011;65463;43.864;20.136;2023-11-19T06:06:23;8.45;;;4.80;;
55218;SDS011;65463;43.864;20.136;2023-11-19T06:08:49;10.85;;;5.13;;
55218;SDS011;65463;43.864;20.136;2023-11-19T06:11:21;11.43;;;4.45;;
55218;SDS011;65463;43.864;20.136;2023-11-19T06:13:47;7.82;;;4.15;;
55218;SDS011;65463;43.864;20.136;2023-11-19T06:16:15;7.50;;;4.45;;
55218;SDS011;65463;43.864;20.136;2023-11-19T06:18:41;10.48;;;4.85;;
55218;SDS011;65463;43.864;20.136;2023-11-19T06:21:09;8.35;;;4.22;;
55218;SDS011;65463;43.864;20.136;2023-11-19T06:23:35;8.93;;;4.05;;
55218;SDS011;65463;43.864;20.136;2023-11-19T06:26:02;7.30;;;3.80;;
55218;SDS011;65463;43.864;20.136;2023-11-19T06:28:28;5.53;;;3.47;;
55218;SDS011;65463;43.864;20.136;2023-11-19T06:30:54;5.30;;;2.90;;
55218;SDS011;65463;43.864;20.136;2023-11-19T06:33:20;6.22;;;2.97;;
55218;SDS011;65463;43.864;20.136;2023-11-19T06:35:47;5.07;;;3.35;;
55218;SDS011;65463;43.864;20.136;2023-11-19T06:38:14;5.28;;;3.17;;
55218;SDS011;65463;43.864;20.136;2023-11-19T06:40:40;5.10;;;3.50;;
55218;SDS011;65463;43.864;20.136;2023-11-19T06:43:06;5.22;;;3.38;;
55218;SDS011;65463;43.864;20.136;2023-11-19T06:45:36;6.68;;;3.13;;
55218;SDS011;65463;43.864;20.136;2023-11-19T06:48:02;5.50;;;3.67;;
55218;SDS011;65463;43.864;20.136;2023-11-19T06:50:29;7.95;;;3.88;;
55218;SDS011;65463;43.864;20.136;2023-11-19T06:52:55;6.47;;;3.92;;
55218;SDS011;65463;43.864;20.136;2023-11-19T06:55:21;6.55;;;3.65;;
55218;SDS011;65463;43.864;20.136;2023-11-19T06:57:47;7.38;;;3.50;;
55218;SDS011;65463;43.864;20.136;2023-11-19T07:00:13;5.88;;;3.97;;
55218;SDS011;65463;43.864;20.136;2023-11-19T07:02:39;14.25;;;9.85;;
55218;SDS011;65463;43.864;20.136;2023-11-19T07:05:06;9.35;;;5.18;;
55218;SDS011;65463;43.864;20.136;2023-11-19T07:07:33;14.68;;;7.55;;
55218;SDS011;65463;43.864;20.136;2023-11-19T07:10:00;10.05;;;4.50;;
55218;SDS011;65463;43.864;20.136;2023-11-19T07:12:30;7.88;;;4.82;;
55218;SDS011;65463;43.864;20.136;2023-11-19T07:15:01;12.00;;;5.47;;
55218;SDS011;65463;43.864;20.136;2023-11-19T07:17:29;19.63;;;6.68;;
55218;SDS011;65463;43.864;20.136;2023-11-19T07:19:58;33.17;;;7.13;;
55218;SDS011;65463;43.864;20.136;2023-11-19T07:22:25;23.98;;;7.95;;
55218;SDS011;65463;43.864;20.136;2023-11-19T07:24:51;46.85;;;11.07;;
55218;SDS011;65463;43.864;20.136;2023-11-19T07:27:20;56.47;;;11.38;;
55218;SDS011;65463;43.864;20.136;2023-11-19T07:29:47;51.03;;;11.43;;
55218;SDS011;65463;43.864;20.136;2023-11-19T07:32:13;48.67;;;13.68;;
55218;SDS011;65463;43.864;20.136;2023-11-19T07:34:39;19.90;;;6.90;;
55218;SDS011;65463;43.864;20.136;2023-11-19T07:37:08;19.33;;;4.97;;
55218;SDS011;65463;43.864;20.136;2023-11-19T07:39:33;50.80;;;9.85;;
55218;SDS011;65463;43.864;20.136;2023-11-19T07:42:00;27.80;;;6.43;;
55218;SDS011;65463;43.864;20.136;2023-11-19T07:44:26;23.50;;;7.50;;
55218;SDS011;65463;43.864;20.136;2023-11-19T07:46:52;19.60;;;5.30;;
55218;SDS011;65463;43.864;20.136;2023-11-19T07:49:19;12.23;;;4.55;;
55218;SDS011;65463;43.864;20.136;2023-11-19T07:51:45;15.68;;;4.82;;
55218;SDS011;65463;43.864;20.136;2023-11-19T07:54:11;12.52;;;3.95;;
55218;SDS011;65463;43.864;20.136;2023-11-19T07:56:39;8.45;;;3.60;;
55218;SDS011;65463;43.864;20.136;2023-11-19T07:59:05;11.27;;;3.83;;
55218;SDS011;65463;43.864;20.136;2023-11-19T08:01:32;11.00;;;4.03;;
55218;SDS011;65463;43.864;20.136;2023-11-19T08:03:57;8.07;;;4.10;;
55218;SDS011;65463;43.864;20.136;2023-11-19T08:06:24;6.70;;;3.97;;
55218;SDS011;65463;43.864;20.136;2023-11-19T08:08:50;6.65;;;3.50;;
55218;SDS011;65463;43.864;20.136;2023-11-19T08:11:17;6.65;;;3.70;;
55218;SDS011;65463;43.864;20.136;2023-11-19T08:13:44;6.18;;;3.20;;
55218;SDS011;65463;43.864;20.136;2023-11-19T08:16:11;4.28;;;2.97;;
55218;SDS011;65463;43.864;20.136;2023-11-19T08:18:37;6.32;;;3.30;;
55218;SDS011;65463;43.864;20.136;2023-11-19T08:21:03;11.50;;;3.50;;
55218;SDS011;65463;43.864;20.136;2023-11-19T08:23:30;6.00;;;3.50;;
55218;SDS011;65463;43.864;20.136;2023-11-19T08:25:55;4.47;;;3.22;;
55218;SDS011;65463;43.864;20.136;2023-11-19T08:28:21;13.43;;;6.60;;
55218;SDS011;65463;43.864;20.136;2023-11-19T08:30:49;6.32;;;4.50;;
55218;SDS011;65463;43.864;20.136;2023-11-19T08:33:15;5.10;;;3.15;;
55218;SDS011;65463;43.864;20.136;2023-11-19T08:35:42;5.65;;;3.45;;
55218;SDS011;65463;43.864;20.136;2023-11-19T08:38:07;7.70;;;2.70;;
55218;SDS011;65463;43.864;20.136;2023-11-19T08:40:33;5.95;;;3.00;;
55218;SDS011;65463;43.864;20.136;2023-11-19T08:42:59;5.78;;;3.20;;
55218;SDS011;65463;43.864;20.136;2023-11-19T08:45:25;4.05;;;2.53;;
55218;SDS011;65463;43.864;20.136;2023-11-19T08:47:52;5.20;;;2.92;;
55218;SDS011;65463;43.864;20.136;2023-11-19T08:50:18;6.75;;;2.58;;
55218;SDS011;65463;43.864;20.136;2023-11-19T08:52:46;5.53;;;2.50;;
55218;SDS011;65463;43.864;20.136;2023-11-19T08:55:13;4.13;;;2.33;;
55218;SDS011;65463;43.864;20.136;2023-11-19T08:57:39;4.95;;;2.50;;
55218;SDS011;65463;43.864;20.136;2023-11-19T09:00:05;3.20;;;2.10;;
55218;SDS011;65463;43.864;20.136;2023-11-19T09:02:35;5.45;;;2.40;;
55218;SDS011;65463;43.864;20.136;2023-11-19T09:07:30;7.82;;;6.07;;
55218;SDS011;65463;43.864;20.136;2023-11-19T09:09:57;6.18;;;4.70;;
55218;SDS011;65463;43.864;20.136;2023-11-19T09:12:23;3.35;;;2.42;;
55218;SDS011;65463;43.864;20.136;2023-11-19T09:14:49;3.38;;;2.30;;
55218;SDS011;65463;43.864;20.136;2023-11-19T09:17:15;3.35;;;2.22;;
55218;SDS011;65463;43.864;20.136;2023-11-19T09:19:46;3.47;;;2.30;;
55218;SDS011;65463;43.864;20.136;2023-11-19T09:22:12;3.40;;;2.25;;
55218;SDS011;65463;43.864;20.136;2023-11-19T09:24:38;4.65;;;2.20;;
55218;SDS011;65463;43.864;20.136;2023-11-19T09:27:04;2.85;;;2.10;;
55218;SDS011;65463;43.864;20.136;2023-11-19T09:29:31;4.75;;;1.95;;
55218;SDS011;65463;43.864;20.136;2023-11-19T09:31:58;3.47;;;2.05;;
55218;SDS011;65463;43.864;20.136;2023-11-19T09:34:24;91.68;;;47.95;;
55218;SDS011;65463;43.864;20.136;2023-11-19T09:36:50;12.65;;;7.50;;
55218;SDS011;65463;43.864;20.136;2023-11-19T09:39:16;17.52;;;10.43;;
55218;SDS011;65463;43.864;20.136;2023-11-19T09:41:43;7.45;;;4.65;;
55218;SDS011;65463;43.864;20.136;2023-11-19T09:44:10;2.78;;;2.10;;
55218;SDS011;65463;43.864;20.136;2023-11-19T09:46:38;3.65;;;2.47;;
55218;SDS011;65463;43.864;20.136;2023-11-19T09:49:04;4.68;;;2.53;;
55218;SDS011;65463;43.864;20.136;2023-11-19T09:51:33;6.00;;;3.00;;
55218;SDS011;65463;43.864;20.136;2023-11-19T09:54:00;5.15;;;3.17;;
55218;SDS011;65463;43.864;20.136;2023-11-19T09:56:26;6.80;;;3.22;;
55218;SDS011;65463;43.864;20.136;2023-11-19T09:58:58;4.43;;;2.60;;
55218;SDS011;65463;43.864;20.136;2023-11-19T10:01:25;3.67;;;2.60;;
55218;SDS011;65463;43.864;20.136;2023-11-19T10:03:51;2.92;;;2.13;;
55218;SDS011;65463;43.864;20.136;2023-11-19T10:06:21;2.55;;;2.05;;
55218;SDS011;65463;43.864;20.136;2023-11-19T10:11:17;4.38;;;2.38;;
55218;SDS011;65463;43.864;20.136;2023-11-19T10:13:45;3.10;;;2.40;;
55218;SDS011;65463;43.864;20.136;2023-11-19T10:16:13;5.28;;;3.58;;
55218;SDS011;65463;43.864;20.136;2023-11-19T10:18:46;3.72;;;2.67;;
55218;SDS011;65463;43.864;20.136;2023-11-19T10:21:13;13.95;;;8.82;;
55218;SDS011;65463;43.864;20.136;2023-11-19T10:23:55;14.33;;;3.07;;
55218;SDS011;65463;43.864;20.136;2023-11-19T10:26:25;3.90;;;2.42;;
55218;SDS011;65463;43.864;20.136;2023-11-19T10:28:52;10.80;;;3.08;;
55218;SDS011;65463;43.864;20.136;2023-11-19T10:31:19;5.32;;;2.50;;
55218;SDS011;65463;43.864;20.136;2023-11-19T10:33:52;5.70;;;2.63;;
55218;SDS011;65463;43.864;20.136;2023-11-19T10:36:18;9.80;;;2.80;;
55218;SDS011;65463;43.864;20.136;2023-11-19T10:38:54;10.20;;;2.83;;
55218;SDS011;65463;43.864;20.136;2023-11-19T10:41:27;8.55;;;2.60;;
55218;SDS011;65463;43.864;20.136;2023-11-19T10:43:57;3.42;;;2.28;;
55218;SDS011;65463;43.864;20.136;2023-11-19T10:46:23;5.75;;;2.40;;
55218;SDS011;65463;43.864;20.136;2023-11-19T10:49:01;62.03;;;4.70;;
55218;SDS011;65463;43.864;20.136;2023-11-19T10:51:28;6.32;;;2.60;;
55218;SDS011;65463;43.864;20.136;2023-11-19T10:53:55;8.88;;;2.92;;
55218;SDS011;65463;43.864;20.136;2023-11-19T10:56:25;5.53;;;2.65;;
55218;SDS011;65463;43.864;20.136;2023-11-19T10:58:53;9.30;;;2.70;;
55218;SDS011;65463;43.864;20.136;2023-11-19T11:01:20;4.80;;;2.50;;
55218;SDS011;65463;43.864;20.136;2023-11-19T11:03:51;8.25;;;2.63;;
55218;SDS011;65463;43.864;20.136;2023-11-19T11:06:23;3.83;;;2.47;;
55218;SDS011;65463;43.864;20.136;2023-11-19T11:08:55;10.98;;;4.60;;
55218;SDS011;65463;43.864;20.136;2023-11-19T11:11:21;110.40;;;70.53;;
55218;SDS011;65463;43.864;20.136;2023-11-19T11:13:48;259.10;;;160.65;;
55218;SDS011;65463;43.864;20.136;2023-11-19T11:16:18;138.27;;;82.88;;
55218;SDS011;65463;43.864;20.136;2023-11-19T11:18:45;338.88;;;215.75;;
55218;SDS011;65463;43.864;20.136;2023-11-19T11:21:16;472.05;;;317.20;;
55218;SDS011;65463;43.864;20.136;2023-11-19T11:29:01;51.42;;;35.78;;
55218;SDS011;65463;43.864;20.136;2023-11-19T11:39:35;21.35;;;14.02;;
55218;SDS011;65463;43.864;20.136;2023-11-19T11:44:58;13.30;;;7.45;;
55218;SDS011;65463;43.864;20.136;2023-11-19T11:50:08;44.25;;;11.43;;
55218;SDS011;65463;43.864;20.136;2023-11-19T11:58:20;78.90;;;18.80;;
55218;SDS011;65463;43.864;20.136;2023-11-19T12:00:48;5.68;;;2.78;;
55218;SDS011;65463;43.864;20.136;2023-11-19T12:03:16;2.67;;;1.70;;
55218;SDS011;65463;43.864;20.136;2023-11-19T12:05:47;6.72;;;2.92;;
55218;SDS011;65463;43.864;20.136;2023-11-19T12:08:14;2.80;;;2.00;;
55218;SDS011;65463;43.864;20.136;2023-11-19T12:10:50;2.95;;;2.05;;
55218;SDS011;65463;43.864;20.136;2023-11-19T12:13:17;7.10;;;2.75;;
55218;SDS011;65463;43.864;20.136;2023-11-19T12:18:26;16.13;;;3.30;;
55218;SDS011;65463;43.864;20.136;2023-11-19T12:20:52;10.50;;;2.85;;
55218;SDS011;65463;43.864;20.136;2023-11-19T12:23:19;4.00;;;2.10;;
55218;SDS011;65463;43.864;20.136;2023-11-19T12:25:45;5.18;;;2.22;;
55218;SDS011;65463;43.864;20.136;2023-11-19T12:28:11;10.90;;;2.40;;
55218;SDS011;65463;43.864;20.136;2023-11-19T12:30:38;5.65;;;2.00;;
55218;SDS011;65463;43.864;20.136;2023-11-19T12:33:08;4.40;;;2.72;;
55218;SDS011;65463;43.864;20.136;2023-11-19T12:35:44;5.35;;;1.80;;
55218;SDS011;65463;43.864;20.136;2023-11-19T12:40:46;3.33;;;1.77;;
55218;SDS011;65463;43.864;20.136;2023-11-19T12:43:21;10.98;;;2.10;;
55218;SDS011;65463;43.864;20.136;2023-11-19T12:45:50;7.57;;;2.15;;
55218;SDS011;65463;43.864;20.136;2023-11-19T12:48:16;4.13;;;1.90;;
55218;SDS011;65463;43.864;20.136;2023-11-19T12:53:25;26.50;;;19.23;;
55218;SDS011;65463;43.864;20.136;2023-11-19T12:55:52;7.97;;;6.13;;
55218;SDS011;65463;43.864;20.136;2023-11-19T13:00:59;8.07;;;6.53;;
55218;SDS011;65463;43.864;20.136;2023-11-19T13:05:51;6.68;;;4.22;;
55218;SDS011;65463;43.864;20.136;2023-11-19T13:08:35;12.23;;;8.02;;
55218;SDS011;65463;43.864;20.136;2023-11-19T13:11:04;3.22;;;2.13;;
55218;SDS011;65463;43.864;20.136;2023-11-19T13:13:31;4.15;;;2.63;;
55218;SDS011;65463;43.864;20.136;2023-11-19T13:16:04;4.88;;;2.38;;
55218;SDS011;65463;43.864;20.136;2023-11-19T13:18:31;5.95;;;4.00;;
55218;SDS011;65463;43.864;20.136;2023-11-19T13:20:57;5.63;;;4.03;;
55218;SDS011;65463;43.864;20.136;2023-11-19T13:23:23;3.85;;;2.67;;
55218;SDS011;65463;43.864;20.136;2023-11-19T13:25:50;3.60;;;2.30;;
55218;SDS011;65463;43.864;20.136;2023-11-19T13:28:16;3.63;;;2.30;;
55218;SDS011;65463;43.864;20.136;2023-11-19T13:30:42;5.13;;;1.92;;
55218;SDS011;65463;43.864;20.136;2023-11-19T13:33:08;4.70;;;2.47;;
55218;SDS011;65463;43.864;20.136;2023-11-19T13:35:37;4.32;;;2.20;;
55218;SDS011;65463;43.864;20.136;2023-11-19T13:38:05;3.80;;;2.63;;
55218;SDS011;65463;43.864;20.136;2023-11-19T13:40:34;25.38;;;4.55;;
55218;SDS011;65463;43.864;20.136;2023-11-19T13:43:00;14.70;;;3.63;;
55218;SDS011;65463;43.864;20.136;2023-11-19T13:45:26;7.75;;;3.90;;
55218;SDS011;65463;43.864;20.136;2023-11-19T13:47:53;7.75;;;3.28;;
55218;SDS011;65463;43.864;20.136;2023-11-19T13:50:19;7.35;;;3.40;;
55218;SDS011;65463;43.864;20.136;2023-11-19T13:52:45;9.38;;;3.70;;
55218;SDS011;65463;43.864;20.136;2023-11-19T13:55:12;11.30;;;5.20;;
55218;SDS011;65463;43.864;20.136;2023-11-19T13:57:39;15.45;;;6.50;;
55218;SDS011;65463;43.864;20.136;2023-11-19T14:00:12;16.40;;;4.70;;
55218;SDS011;65463;43.864;20.136;2023-11-19T14:02:39;28.67;;;5.75;;
55218;SDS011;65463;43.864;20.136;2023-11-19T14:05:10;59.23;;;9.07;;
55218;SDS011;65463;43.864;20.136;2023-11-19T14:07:37;20.85;;;6.47;;
55218;SDS011;65463;43.864;20.136;2023-11-19T14:10:04;12.20;;;5.45;;
55218;SDS011;65463;43.864;20.136;2023-11-19T14:12:36;11.73;;;5.50;;
55218;SDS011;65463;43.864;20.136;2023-11-19T14:15:05;10.27;;;5.20;;
55218;SDS011;65463;43.864;20.136;2023-11-19T14:17:32;10.40;;;5.90;;
55218;SDS011;65463;43.864;20.136;2023-11-19T14:20:02;13.57;;;5.50;;
55218;SDS011;65463;43.864;20.136;2023-11-19T14:22:44;11.90;;;6.50;;
55218;SDS011;65463;43.864;20.136;2023-11-19T14:25:13;22.80;;;5.93;;
55218;SDS011;65463;43.864;20.136;2023-11-19T14:27:39;13.13;;;5.70;;
55218;SDS011;65463;43.864;20.136;2023-11-19T14:30:06;12.93;;;5.28;;
55218;SDS011;65463;43.864;20.136;2023-11-19T14:32:36;14.57;;;5.70;;
55218;SDS011;65463;43.864;20.136;2023-11-19T14:35:03;14.97;;;6.23;;
55218;SDS011;65463;43.864;20.136;2023-11-19T14:37:29;13.52;;;6.07;;
55218;SDS011;65463;43.864;20.136;2023-11-19T14:39:59;13.00;;;5.72;;
55218;SDS011;65463;43.864;20.136;2023-11-19T14:42:26;13.43;;;6.22;;
55218;SDS011;65463;43.864;20.136;2023-11-19T14:44:53;12.82;;;6.18;;
55218;SDS011;65463;43.864;20.136;2023-11-19T14:47:20;12.65;;;6.30;;
55218;SDS011;65463;43.864;20.136;2023-11-19T14:49:46;16.02;;;6.05;;
55218;SDS011;65463;43.864;20.136;2023-11-19T14:52:12;15.75;;;5.85;;
55218;SDS011;65463;43.864;20.136;2023-11-19T14:54:39;17.17;;;5.95;;
55218;SDS011;65463;43.864;20.136;2023-11-19T14:57:05;17.48;;;6.07;;
55218;SDS011;65463;43.864;20.136;2023-11-19T14:59:33;21.60;;;7.25;;
55218;SDS011;65463;43.864;20.136;2023-11-19T15:01:59;35.05;;;15.43;;
55218;SDS011;65463;43.864;20.136;2023-11-19T15:04:28;22.52;;;10.63;;
55218;SDS011;65463;43.864;20.136;2023-11-19T15:06:58;22.95;;;8.93;;
55218;SDS011;65463;43.864;20.136;2023-11-19T15:09:25;21.63;;;8.13;;
55218;SDS011;65463;43.864;20.136;2023-11-19T15:11:54;18.05;;;8.10;;
55218;SDS011;65463;43.864;20.136;2023-11-19T15:14:22;25.77;;;8.32;;
55218;SDS011;65463;43.864;20.136;2023-11-19T15:16:49;22.63;;;7.60;;
55218;SDS011;65463;43.864;20.136;2023-11-19T15:19:16;27.27;;;9.13;;
55218;SDS011;65463;43.864;20.136;2023-11-19T15:21:42;25.38;;;9.45;;